Time;durP1;ratioP1;P1;durP2;ratioP2;P2;SDS_P1;SDS_P2;PMS_P1;PMS_P2;Temp;Humidity;BMP_temperature;BMP_pressure;BME280_temperature;BME280_humidity;BME280_pressure;Samples;Min_cycle;Max_cycle;Signal;HPM_P1;HPM_P2
2022/11/24 00:01:29;;;;;;;19.85;3.70;;;9.50;99.90;;;;;;5104506;28;20029;-69
2022/11/24 00:04:03;;;;;;;16.85;3.78;;;9.40;99.90;;;;;;5110552;28;20471;-68
2022/11/24 00:06:30;;;;;;;14.13;3.65;;;9.50;99.90;;;;;;5107557;28;20113;-69
2022/11/24 00:08:56;;;;;;;18.70;3.58;;;9.50;99.90;;;;;;5101168;28;20020;-69
2022/11/24 00:11:28;;;;;;;24.35;4.40;;;9.50;99.90;;;;;;5102881;28;20024;-68
2022/11/24 00:13:54;;;;;;;20.25;3.60;;;9.50;99.90;;;;;;5109298;28;20028;-69
2022/11/24 00:16:22;;;;;;;22.80;3.08;;;9.50;99.90;;;;;;5109087;28;20020;-68
2022/11/24 00:18:49;;;;;;;22.45;3.38;;;9.60;99.90;;;;;;5103020;28;20039;-69
2022/11/24 00:21:16;;;;;;;22.98;3.60;;;9.50;99.90;;;;;;5090553;28;20022;-69
2022/11/24 00:23:43;;;;;;;20.98;3.80;;;9.50;99.90;;;;;;5110814;28;20054;-69
2022/11/24 00:26:18;;;;;;;22.42;4.28;;;9.50;99.90;;;;;;5104249;28;20051;-69
2022/11/24 00:28:45;;;;;;;21.75;3.72;;;9.50;99.90;;;;;;5105686;28;20076;-69
2022/11/24 00:31:22;;;;;;;18.05;3.75;;;9.50;99.90;;;;;;5111705;28;20020;-68
2022/11/24 00:33:49;;;;;;;20.92;4.10;;;9.40;99.90;;;;;;5101735;28;20035;-68
2022/11/24 00:36:16;;;;;;;30.35;3.88;;;9.50;99.90;;;;;;5108342;28;20031;-69
2022/11/24 00:38:43;;;;;;;18.83;3.70;;;9.40;99.90;;;;;;5102008;28;20380;-69
2022/11/24 00:41:08;;;;;;;18.52;3.45;;;9.50;99.90;;;;;;5103227;28;20380;-69
2022/11/24 00:43:34;;;;;;;19.40;3.90;;;9.40;99.90;;;;;;5104134;28;20032;-69
2022/11/24 00:46:00;;;;;;;21.67;3.53;;;9.40;99.90;;;;;;5107696;28;20551;-68
2022/11/24 00:48:26;;;;;;;24.00;3.92;;;9.40;99.90;;;;;;5110185;28;20031;-69
2022/11/24 00:50:58;;;;;;;24.17;4.05;;;9.40;99.90;;;;;;5105964;28;20103;-69
2022/11/24 00:53:24;;;;;;;;;;;9.40;99.90;;;;;;5107052;28;20039;-68
2022/11/24 00:55:50;;;;;;;18.73;3.78;;;9.40;99.90;;;;;;5099271;28;20288;-69
2022/11/24 00:58:16;;;;;;;19.58;4.05;;;9.40;99.90;;;;;;5101757;28;20055;-69
2022/11/24 01:00:42;;;;;;;23.08;3.58;;;9.40;99.90;;;;;;5105196;28;20058;-69
2022/11/24 01:03:07;;;;;;;21.67;3.85;;;9.40;99.90;;;;;;5102359;28;20493;-69
2022/11/24 01:05:36;;;;;;;23.67;3.67;;;9.40;99.90;;;;;;5101798;28;20028;-69
2022/11/24 01:08:02;;;;;;;15.20;3.97;;;9.40;99.90;;;;;;5104717;28;20024;-69
2022/11/24 01:10:28;;;;;;;20.38;3.85;;;9.40;99.90;;;;;;5107019;28;20068;-70
2022/11/24 01:12:53;;;;;;;20.40;4.53;;;9.40;99.90;;;;;;5104513;28;20062;-69
2022/11/24 01:15:19;;;;;;;26.67;4.40;;;9.30;99.90;;;;;;5103433;28;20492;-69
2022/11/24 01:17:45;;;;;;;23.30;4.43;;;9.40;99.90;;;;;;5106079;28;20115;-68
2022/11/24 01:20:11;;;;;;;24.63;3.72;;;9.40;99.90;;;;;;5104962;28;20029;-69
2022/11/24 01:22:41;;;;;;;18.70;3.17;;;9.40;99.90;;;;;;5106515;28;20097;-68
2022/11/24 01:25:08;;;;;;;19.40;4.05;;;9.40;99.90;;;;;;5097551;28;20130;-69
2022/11/24 01:27:33;;;;;;;18.35;3.53;;;9.40;99.90;;;;;;5101096;28;20484;-68
2022/11/24 01:29:59;;;;;;;29.20;3.47;;;9.40;99.90;;;;;;5105665;28;20035;-69
2022/11/24 01:32:25;;;;;;;19.83;4.40;;;9.40;99.90;;;;;;5101596;28;20038;-69
2022/11/24 01:34:50;;;;;;;26.65;4.38;;;9.40;99.90;;;;;;5106827;28;20129;-69
2022/11/24 01:37:16;;;;;;;22.25;3.95;;;9.40;99.90;;;;;;5109836;28;20023;-69
2022/11/24 01:39:42;;;;;;;25.02;3.78;;;9.40;99.90;;;;;;5101384;28;20027;-69
2022/11/24 01:42:07;;;;;;;24.55;3.70;;;9.50;99.90;;;;;;5105388;28;20036;-69
2022/11/24 01:44:33;;;;;;;24.15;4.28;;;9.50;99.90;;;;;;5102414;28;20395;-69
2022/11/24 01:47:25;;;;;;;18.98;3.45;;;9.60;99.90;;;;;;5108713;28;20032;-69
2022/11/24 01:49:55;;;;;;;11.82;3.38;;;9.50;99.90;;;;;;5106413;28;20046;-68
2022/11/24 01:52:44;;;;;;;18.13;3.50;;;9.60;99.90;;;;;;5102841;28;20101;-68
2022/11/24 01:55:21;;;;;;;34.75;5.00;;;9.50;99.90;;;;;;5098932;28;20509;-69
2022/11/24 01:57:51;;;;;;;32.05;4.53;;;9.50;99.90;;;;;;5106684;28;20383;-68
2022/11/24 02:00:17;;;;;;;23.58;4.00;;;9.40;99.90;;;;;;5104966;28;20023;-69
2022/11/24 02:02:44;;;;;;;21.70;4.18;;;9.40;99.90;;;;;;5107728;28;20168;-69
2022/11/24 02:05:15;;;;;;;22.77;4.30;;;9.40;99.90;;;;;;5109737;28;20023;-69
2022/11/24 02:07:41;;;;;;;21.67;3.92;;;9.40;99.90;;;;;;5105322;28;20080;-69
2022/11/24 02:10:12;;;;;;;27.90;4.68;;;9.40;99.90;;;;;;5105518;28;20023;-68
2022/11/24 02:12:40;;;;;;;23.02;4.43;;;9.40;99.90;;;;;;5111869;28;20023;-69
2022/11/24 02:15:07;;;;;;;25.65;4.43;;;9.40;99.90;;;;;;5106057;28;20032;-69
2022/11/24 02:17:32;;;;;;;19.80;4.10;;;9.50;99.90;;;;;;5110249;28;20028;-69
2022/11/24 02:20:02;;;;;;;26.38;4.47;;;9.50;99.90;;;;;;5103862;28;20036;-69
2022/11/24 02:22:44;;;;;;;29.30;5.40;;;9.40;99.90;;;;;;5106429;28;20039;-68
2022/11/24 02:25:10;;;;;;;24.83;4.63;;;9.50;99.90;;;;;;5109762;28;20055;-69
2022/11/24 02:27:36;;;;;;;20.67;4.30;;;9.40;99.90;;;;;;5109899;28;20535;-68
2022/11/24 02:30:03;;;;;;;27.60;4.70;;;9.40;99.90;;;;;;5109447;27;20123;-69
2022/11/24 02:32:30;;;;;;;29.55;4.68;;;9.40;99.90;;;;;;5105357;28;20027;-69
2022/11/24 02:35:02;;;;;;;27.48;4.65;;;9.40;99.90;;;;;;5109307;28;20051;-69
2022/11/24 02:37:28;;;;;;;30.13;5.50;;;9.40;99.90;;;;;;5106688;28;20111;-68
2022/11/24 02:39:53;;;;;;;21.65;4.13;;;9.40;99.90;;;;;;5105987;28;20098;-69
2022/11/24 02:42:19;;;;;;;23.20;4.72;;;9.50;99.90;;;;;;5104414;27;20032;-69
2022/11/24 02:44:49;;;;;;;29.75;5.07;;;9.50;99.90;;;;;;5110336;28;20039;-69
2022/11/24 02:47:15;;;;;;;26.02;4.03;;;9.40;99.90;;;;;;5112146;28;20037;-69
2022/11/24 02:49:41;;;;;;;16.75;3.65;;;9.50;99.90;;;;;;5101477;28;20020;-68
2022/11/24 02:52:07;;;;;;;24.52;4.55;;;9.60;99.90;;;;;;5088423;28;20066;-68
2022/11/24 02:54:32;;;;;;;25.65;3.95;;;9.60;99.90;;;;;;5112021;28;20027;-68
2022/11/24 02:56:58;;;;;;;22.33;4.05;;;9.60;99.90;;;;;;5106866;28;20027;-69
2022/11/24 02:59:24;;;;;;;24.30;4.05;;;9.70;99.90;;;;;;5099886;28;20027;-69
2022/11/24 03:01:49;;;;;;;35.60;5.45;;;9.70;99.90;;;;;;5105139;28;20031;-69
2022/11/24 03:04:15;;;;;;;34.15;5.68;;;9.70;99.90;;;;;;5106878;28;20089;-68
2022/11/24 03:06:42;;;;;;;32.38;5.75;;;9.70;99.90;;;;;;5106549;28;20034;-69
2022/11/24 03:09:09;;;;;;;28.45;5.45;;;9.70;99.90;;;;;;5106082;28;20024;-69
2022/11/24 03:11:34;;;;;;;21.80;4.72;;;9.70;99.90;;;;;;5107062;28;20024;-69
2022/11/24 03:14:00;;;;;;;27.02;4.45;;;9.70;99.90;;;;;;5110398;28;20425;-68
2022/11/24 03:16:26;;;;;;;32.88;4.93;;;9.70;99.90;;;;;;5108260;28;20032;-68
2022/11/24 03:18:52;;;;;;;29.80;4.05;;;9.70;99.90;;;;;;5110679;28;20083;-69
2022/11/24 03:21:18;;;;;;;25.73;3.88;;;9.80;99.90;;;;;;5110877;28;20388;-68
2022/11/24 03:23:43;;;;;;;34.55;5.05;;;9.80;99.90;;;;;;5105429;28;20031;-70
2022/11/24 03:26:14;;;;;;;36.13;5.03;;;9.80;99.90;;;;;;5107828;28;20023;-68
2022/11/24 03:28:39;;;;;;;31.50;5.93;;;9.80;99.90;;;;;;5105060;28;20112;-69
2022/11/24 03:31:06;;;;;;;27.65;4.75;;;9.90;99.90;;;;;;5112294;28;20043;-69
2022/11/24 03:33:32;;;;;;;31.98;4.70;;;9.90;99.90;;;;;;5110855;28;20116;-69
2022/11/24 03:35:58;;;;;;;26.55;4.68;;;9.90;99.90;;;;;;5106050;28;20082;-69
2022/11/24 03:38:23;;;;;;;29.00;5.38;;;9.90;99.90;;;;;;5106674;28;20110;-69
2022/11/24 03:40:49;;;;;;;27.15;4.72;;;10.00;99.90;;;;;;5103994;28;20024;-68
2022/11/24 03:43:15;;;;;;;27.20;5.10;;;10.00;99.90;;;;;;5106234;28;20063;-69
2022/11/24 03:45:43;;;;;;;29.58;4.55;;;9.90;99.90;;;;;;5090177;28;20491;-69
2022/11/24 03:48:09;;;;;;;19.67;4.25;;;9.90;99.90;;;;;;5103803;27;20012;-69
2022/11/24 03:50:34;;;;;;;28.00;4.93;;;9.90;99.90;;;;;;5108618;28;20026;-68
2022/11/24 03:53:00;;;;;;;31.25;4.88;;;9.90;99.90;;;;;;5109107;28;20077;-69
2022/11/24 03:55:26;;;;;;;30.83;5.13;;;9.90;99.90;;;;;;5109064;28;20443;-69
2022/11/24 03:57:51;;;;;;;35.20;5.63;;;9.90;99.90;;;;;;5090016;28;20024;-69
2022/11/24 04:00:17;;;;;;;30.55;4.57;;;9.90;99.90;;;;;;5110270;28;20023;-69
2022/11/24 04:02:42;;;;;;;30.15;5.25;;;9.90;99.90;;;;;;5102780;28;20463;-69
2022/11/24 04:05:08;;;;;;;32.88;5.00;;;10.00;99.90;;;;;;5102592;28;20064;-69
2022/11/24 04:07:34;;;;;;;32.00;5.03;;;10.00;99.90;;;;;;5108886;27;20055;-69
2022/11/24 04:09:59;;;;;;;24.42;4.05;;;10.00;99.90;;;;;;5103409;28;20503;-69
2022/11/24 04:12:43;;;;;;;27.85;5.50;;;10.10;99.90;;;;;;5104186;28;20030;-69
2022/11/24 04:15:18;;;;;;;26.55;4.10;;;10.10;99.90;;;;;;5104882;28;20472;-69
2022/11/24 04:17:45;;;;;;;20.42;3.83;;;10.10;99.90;;;;;;5104008;28;20023;-69
2022/11/24 04:20:12;;;;;;;21.58;4.57;;;10.10;99.90;;;;;;5106160;28;20041;-69
2022/11/24 04:22:38;;;;;;;24.75;4.03;;;10.00;99.90;;;;;;5103288;28;20492;-68
2022/11/24 04:25:04;;;;;;;32.05;4.63;;;10.10;99.90;;;;;;5105369;28;20030;-69
2022/11/24 04:27:33;;;;;;;23.90;4.85;;;10.10;99.90;;;;;;5107266;28;20020;-69
2022/11/24 04:29:58;;;;;;;35.33;5.15;;;10.10;99.90;;;;;;5104615;28;20070;-69
2022/11/24 04:32:24;;;;;;;21.83;5.30;;;10.10;99.90;;;;;;5109734;28;20063;-69
2022/11/24 04:34:50;;;;;;;30.83;5.47;;;10.10;99.90;;;;;;5101096;28;20032;-69
2022/11/24 04:37:15;;;;;;;29.80;5.22;;;10.10;99.90;;;;;;5108369;28;20025;-68
2022/11/24 04:39:41;;;;;;;32.60;4.68;;;10.10;99.90;;;;;;5099453;28;20097;-68
2022/11/24 04:42:06;;;;;;;31.42;5.05;;;10.10;99.90;;;;;;5105990;28;20058;-69
2022/11/24 04:44:32;;;;;;;21.33;3.92;;;10.10;99.90;;;;;;5106839;28;20035;-71
2022/11/24 04:46:58;;;;;;;31.52;4.35;;;10.10;99.90;;;;;;5105007;28;20536;-69
2022/11/24 04:49:23;;;;;;;32.60;4.65;;;10.10;99.90;;;;;;5107652;28;20036;-68
2022/11/24 04:51:49;;;;;;;35.03;5.50;;;10.00;99.90;;;;;;5111681;28;20476;-69
2022/11/24 04:54:15;;;;;;;31.95;4.65;;;10.00;99.90;;;;;;5105211;28;20115;-69
2022/11/24 04:56:41;;;;;;;34.65;5.07;;;10.10;99.90;;;;;;5090715;28;20395;-69
2022/11/24 04:59:11;;;;;;;34.78;5.72;;;10.10;99.90;;;;;;5106390;28;20107;-71
2022/11/24 05:01:36;;;;;;;27.90;5.07;;;10.00;99.90;;;;;;5105146;28;20027;-69
2022/11/24 05:04:02;;;;;;;48.80;5.43;;;10.10;99.90;;;;;;5088276;28;20035;-68
2022/11/24 05:06:27;;;;;;;33.75;5.07;;;10.10;99.90;;;;;;5103684;28;20213;-69
2022/11/24 05:08:53;;;;;;;31.80;5.32;;;10.10;99.90;;;;;;5109817;28;20032;-69
2022/11/24 05:11:19;;;;;;;28.10;5.00;;;10.10;99.90;;;;;;5106835;28;20025;-69
2022/11/24 05:13:44;;;;;;;22.30;4.22;;;10.00;99.90;;;;;;5106336;28;20027;-68
2022/11/24 05:16:11;;;;;;;28.42;5.22;;;10.00;99.90;;;;;;5089262;28;20032;-69
2022/11/24 05:18:37;;;;;;;33.55;4.78;;;10.00;99.90;;;;;;5100419;28;20028;-68
2022/11/24 05:21:03;;;;;;;23.88;4.25;;;9.90;99.90;;;;;;5104768;28;20039;-69
2022/11/24 05:23:29;;;;;;;27.80;4.35;;;9.90;99.90;;;;;;5103259;28;20100;-69
2022/11/24 05:26:01;;;;;;;24.45;4.88;;;9.90;99.90;;;;;;5106884;28;20015;-68
2022/11/24 05:28:27;;;;;;;25.70;4.70;;;9.90;99.90;;;;;;5108062;28;20034;-68
2022/11/24 05:30:53;;;;;;;18.00;3.60;;;9.90;99.90;;;;;;5109219;28;20043;-69
2022/11/24 05:33:21;;;;;;;18.65;4.35;;;9.90;99.90;;;;;;5113347;28;20484;-69
2022/11/24 05:35:48;;;;;;;29.23;3.85;;;9.90;99.90;;;;;;5112705;28;20020;-69
2022/11/24 05:38:15;;;;;;;27.27;3.78;;;9.90;99.90;;;;;;5107967;28;20022;-69
2022/11/24 05:40:41;;;;;;;22.85;3.78;;;9.80;99.90;;;;;;5105767;28;20391;-69
2022/11/24 05:43:15;;;;;;;16.83;3.58;;;9.80;99.90;;;;;;5103059;28;20080;-69
2022/11/24 05:45:41;;;;;;;23.08;4.00;;;9.70;99.90;;;;;;5110125;28;20020;-69
2022/11/24 05:48:10;;;;;;;13.10;3.22;;;9.70;99.90;;;;;;5107951;28;20031;-69
2022/11/24 05:50:36;;;;;;;19.30;3.55;;;9.70;99.90;;;;;;5109425;28;20027;-69
2022/11/24 05:53:07;;;;;;;17.73;3.25;;;9.70;99.90;;;;;;5104469;28;20035;-69
2022/11/24 05:55:33;;;;;;;12.98;3.15;;;9.70;99.90;;;;;;5106626;28;20053;-69
2022/11/24 05:58:00;;;;;;;18.60;3.13;;;9.70;99.90;;;;;;5104136;28;20070;-69
2022/11/24 06:00:26;;;;;;;20.92;3.13;;;9.70;99.90;;;;;;5112291;28;20023;-68
2022/11/24 06:02:52;;;;;;;11.60;2.88;;;9.70;99.90;;;;;;5107585;28;20035;-69
2022/11/24 06:05:17;;;;;;;13.88;2.90;;;9.70;99.90;;;;;;5108168;28;20024;-68
2022/11/24 06:07:43;;;;;;;9.02;2.33;;;9.80;99.90;;;;;;5112677;28;20088;-69
2022/11/24 06:10:08;;;;;;;13.05;3.03;;;9.80;99.90;;;;;;5114222;28;20140;-69
2022/11/24 06:12:35;;;;;;;9.50;2.17;;;9.80;99.90;;;;;;5108145;28;20077;-69
2022/11/24 06:15:00;;;;;;;17.65;2.40;;;9.70;99.90;;;;;;5105545;28;20349;-69
2022/11/24 06:17:26;;;;;;;13.43;2.40;;;9.70;99.90;;;;;;5110733;28;20027;-69
2022/11/24 06:19:52;;;;;;;8.35;2.40;;;9.70;99.90;;;;;;5104071;28;20046;-68
2022/11/24 06:22:18;;;;;;;10.55;1.77;;;9.70;99.90;;;;;;5111723;28;20031;-69
2022/11/24 06:24:45;;;;;;;8.32;1.83;;;9.80;99.90;;;;;;5107176;28;20031;-70
2022/11/24 06:27:11;;;;;;;7.47;2.30;;;9.80;99.90;;;;;;5110309;27;20500;-70
2022/11/24 06:29:37;;;;;;;13.10;2.53;;;9.80;99.90;;;;;;5105552;28;20582;-68
2022/11/24 06:32:03;;;;;;;8.30;2.10;;;9.80;99.90;;;;;;5108283;28;20476;-68
2022/11/24 06:34:29;;;;;;;10.32;2.05;;;9.90;99.90;;;;;;5111397;28;20492;-69
2022/11/24 06:36:54;;;;;;;10.82;1.70;;;9.80;99.90;;;;;;5111148;28;20030;-73
2022/11/24 06:39:20;;;;;;;8.85;1.92;;;9.80;99.90;;;;;;5111875;28;20034;-71
2022/11/24 06:41:48;;;;;;;8.90;1.73;;;9.70;99.90;;;;;;5111484;28;20043;-71
2022/11/24 06:44:13;;;;;;;5.60;1.45;;;9.70;99.90;;;;;;5103089;28;20036;-71
2022/11/24 06:46:39;;;;;;;9.40;2.05;;;9.70;99.90;;;;;;5105119;28;20594;-69
2022/11/24 06:49:04;;;;;;;10.15;2.03;;;9.70;99.90;;;;;;5106679;28;20031;-70
2022/11/24 06:51:30;;;;;;;6.72;1.70;;;9.70;99.90;;;;;;5108804;28;20024;-69
2022/11/24 06:53:55;;;;;;;9.10;1.77;;;9.70;99.90;;;;;;5105031;28;20018;-70
2022/11/24 06:56:21;;;;;;;8.80;1.27;;;9.70;99.90;;;;;;5112149;28;20042;-70
2022/11/24 06:58:50;;;;;;;7.97;1.70;;;9.70;99.90;;;;;;5110550;28;20039;-71
2022/11/24 07:01:20;;;;;;;8.02;1.73;;;9.70;99.90;;;;;;5102160;27;20414;-70
2022/11/24 07:03:47;;;;;;;6.80;2.58;;;9.70;99.90;;;;;;5110443;28;20032;-76
2022/11/24 07:06:13;;;;;;;9.98;1.90;;;9.70;99.90;;;;;;5108280;27;20080;-70
2022/11/24 07:08:39;;;;;;;11.95;2.05;;;9.70;99.90;;;;;;5092471;28;20088;-69
2022/11/24 07:11:10;;;;;;;9.10;2.00;;;9.70;99.90;;;;;;5109107;28;20416;-69
2022/11/24 07:13:36;;;;;;;4.50;1.40;;;9.70;99.90;;;;;;5111978;28;20376;-70
2022/11/24 07:16:17;;;;;;;9.40;1.70;;;9.80;99.90;;;;;;5107440;28;20020;-69
2022/11/24 07:18:44;;;;;;;5.25;1.58;;;9.70;99.90;;;;;;5104466;28;20027;-70
2022/11/24 07:21:10;;;;;;;10.00;1.73;;;9.80;99.90;;;;;;5111877;28;20519;-71
2022/11/24 07:23:35;;;;;;;4.32;2.00;;;9.70;99.90;;;;;;5089360;28;20034;-70
2022/11/24 07:26:05;;;;;;;13.18;2.35;;;9.70;99.90;;;;;;5106358;28;20437;-69
2022/11/24 07:28:31;;;;;;;8.25;2.15;;;9.70;99.90;;;;;;5105850;28;20477;-69
2022/11/24 07:30:57;;;;;;;10.23;2.20;;;9.70;99.90;;;;;;5104633;28;20023;-69
2022/11/24 07:33:26;;;;;;;11.13;2.63;;;9.70;99.90;;;;;;5101522;27;20028;-69
2022/11/24 07:35:52;;;;;;;7.82;1.85;;;9.70;99.90;;;;;;5099494;28;20039;-70
2022/11/24 07:38:18;;;;;;;9.35;2.30;;;9.60;99.90;;;;;;5086007;28;20023;-70
2022/11/24 07:40:43;;;;;;;11.48;2.17;;;9.70;99.90;;;;;;5109522;28;20090;-70
2022/11/24 07:43:09;;;;;;;12.02;2.35;;;9.60;99.90;;;;;;5108113;28;20040;-70
2022/11/24 07:45:34;;;;;;;8.43;2.03;;;9.60;99.90;;;;;;5088008;28;20012;-70
2022/11/24 07:48:00;;;;;;;7.10;1.95;;;9.60;99.90;;;;;;5102067;28;20082;-70
2022/11/24 07:50:25;;;;;;;11.45;2.67;;;9.60;99.90;;;;;;5105637;28;20495;-70
2022/11/24 07:52:51;;;;;;;12.57;1.95;;;9.50;99.90;;;;;;5108519;28;20388;-70
2022/11/24 07:55:17;;;;;;;11.45;2.55;;;9.40;99.90;;;;;;5107156;28;20072;-70
2022/11/24 07:57:42;;;;;;;17.83;2.58;;;9.50;99.90;;;;;;5103439;28;20480;-69
2022/11/24 08:00:08;;;;;;;11.27;2.45;;;9.50;99.90;;;;;;5108819;28;20020;-69
2022/11/24 08:02:34;;;;;;;12.20;2.13;;;9.50;99.90;;;;;;5111400;28;20035;-69
2022/11/24 08:05:00;;;;;;;11.65;2.08;;;9.60;99.90;;;;;;5106813;28;20027;-74
2022/11/24 08:07:25;;;;;;;14.35;2.60;;;9.60;99.90;;;;;;5101347;28;20046;-70
2022/11/24 08:09:51;;;;;;;15.52;2.30;;;9.70;99.90;;;;;;5109742;28;20066;-69
2022/11/24 08:12:20;;;;;;;11.90;2.72;;;9.60;99.90;;;;;;5103463;27;20035;-70
2022/11/24 08:14:48;;;;;;;17.27;2.60;;;9.70;99.90;;;;;;5092141;28;20054;-70
2022/11/24 08:17:14;;;;;;;10.20;2.55;;;9.70;99.90;;;;;;5111197;28;20024;-69
2022/11/24 08:19:39;;;;;;;14.45;2.63;;;9.70;99.90;;;;;;5109119;28;20040;-70
2022/11/24 08:22:05;;;;;;;17.73;3.25;;;9.60;99.90;;;;;;5100448;28;20031;-69
2022/11/24 08:24:30;;;;;;;12.15;3.05;;;9.60;99.90;;;;;;5105952;28;20024;-70
2022/11/24 08:26:56;;;;;;;14.52;3.10;;;9.60;99.90;;;;;;5103618;28;20474;-71
2022/11/24 08:29:22;;;;;;;13.75;3.47;;;9.70;99.90;;;;;;5103570;28;20024;-76
2022/11/24 08:31:47;;;;;;;13.95;2.97;;;9.70;99.90;;;;;;5090347;28;20008;-70
2022/11/24 08:34:13;;;;;;;11.63;2.75;;;9.60;99.90;;;;;;5099075;28;20029;-69
2022/11/24 08:36:38;;;;;;;13.60;3.92;;;9.70;99.90;;;;;;5106269;28;20020;-70
2022/11/24 08:58:48;;;;;;;11.75;2.92;;;9.70;99.90;;;;;;5029414;28;20499;-73
2022/11/24 09:01:16;;;;;;;19.08;2.95;;;9.70;99.90;;;;;;5051373;22;20679;-75
2022/11/24 09:03:43;;;;;;;19.50;3.40;;;9.70;99.90;;;;;;5045456;28;20491;-75
2022/11/24 09:06:09;;;;;;;16.80;3.33;;;9.70;99.90;;;;;;5049695;28;20025;-76
2022/11/24 09:08:36;;;;;;;13.32;2.60;;;9.80;99.90;;;;;;5053517;28;20558;-74
2022/11/24 09:11:06;;;;;;;15.98;3.50;;;9.80;99.90;;;;;;5052865;28;20021;-69
2022/11/24 09:13:31;;;;;;;17.67;3.08;;;9.80;99.90;;;;;;5052914;28;20037;-74
2022/11/24 09:16:09;;;;;;;13.43;3.17;;;9.80;99.90;;;;;;5047846;28;20028;-75
2022/11/24 09:18:35;;;;;;;12.93;2.67;;;9.90;99.90;;;;;;5053673;28;20037;-75
2022/11/24 09:21:08;;;;;;;15.30;2.95;;;9.90;99.90;;;;;;5049202;28;20017;-75
2022/11/24 09:23:34;;;;;;;18.20;3.55;;;10.00;99.90;;;;;;5051347;28;20203;-71
2022/11/24 09:26:09;;;;;;;17.52;3.78;;;10.10;99.90;;;;;;5036587;28;20483;-76
2022/11/24 09:28:35;;;;;;;14.77;3.33;;;10.10;99.90;;;;;;5045744;28;20078;-69
2022/11/24 09:31:05;;;;;;;17.65;3.45;;;10.10;99.90;;;;;;5053702;28;20029;-76
2022/11/24 09:33:32;;;;;;;16.95;3.83;;;10.10;99.90;;;;;;5052126;28;20075;-75
2022/11/24 09:35:58;;;;;;;15.10;2.95;;;10.20;99.90;;;;;;5046807;28;20384;-75
2022/11/24 09:38:24;;;;;;;18.15;3.53;;;10.30;99.90;;;;;;5051141;28;20021;-74
2022/11/24 09:40:51;;;;;;;17.60;3.15;;;10.30;99.90;;;;;;5047635;28;20033;-75
2022/11/24 09:43:39;;;;;;;10.88;2.65;;;10.30;99.90;;;;;;5025471;28;20032;-75
2022/11/24 09:46:18;;;;;;;17.38;3.50;;;10.40;99.90;;;;;;5033129;28;20074;-76
2022/11/24 09:48:48;;;;;;;12.35;2.70;;;10.40;99.90;;;;;;5050570;28;20028;-75
2022/11/24 09:51:15;;;;;;;19.42;3.13;;;10.50;99.90;;;;;;5052185;28;20380;-77
2022/11/24 09:53:47;;;;;;;11.98;3.05;;;10.60;99.90;;;;;;5046193;28;20389;-76
2022/11/24 09:56:22;;;;;;;16.65;2.45;;;10.60;99.90;;;;;;5050729;28;20025;-75
2022/11/24 09:59:01;;;;;;;14.75;3.10;;;10.60;99.90;;;;;;5046610;28;20028;-74
2022/11/24 10:01:33;;;;;;;11.73;2.67;;;10.70;99.90;;;;;;5029907;28;20507;-75
2022/11/24 10:04:00;;;;;;;17.73;3.22;;;10.80;99.90;;;;;;5021429;28;20029;-76
2022/11/24 10:06:33;;;;;;;16.98;2.92;;;10.80;99.90;;;;;;5027013;28;20018;-77
2022/11/24 10:08:59;;;;;;;;;;;10.90;99.90;;;;;;5023613;28;20053;-74
2022/11/24 10:11:35;;;;;;;13.63;2.83;;;10.90;99.90;;;;;;5027226;28;20025;-76
2022/11/24 10:14:19;;;;;;;12.82;2.85;;;11.00;99.90;;;;;;5029996;28;20083;-76
2022/11/24 10:16:50;;;;;;;12.18;2.50;;;11.10;99.90;;;;;;5032516;28;20033;-68
2022/11/24 10:19:47;;;;;;;10.30;2.50;;;11.20;99.90;;;;;;5024587;28;20040;-75
2022/11/24 10:22:19;;;;;;;12.32;2.92;;;11.20;99.90;;;;;;5027648;28;20374;-75
2022/11/24 10:25:01;;;;;;;13.80;3.40;;;11.10;99.90;;;;;;5020659;28;20469;-75
2022/11/24 10:27:35;;;;;;;17.73;3.30;;;11.10;99.90;;;;;;5020841;28;20527;-76
2022/11/24 10:30:01;;;;;;;10.80;2.55;;;11.20;99.90;;;;;;5019820;28;20292;-76
2022/11/24 10:33:06;;;;;;;17.33;3.20;;;11.20;99.90;;;;;;5027377;28;20492;-75
2022/11/24 10:35:37;;;;;;;15.40;2.70;;;11.20;99.90;;;;;;5019021;28;20485;-76
2022/11/24 10:38:20;;;;;;;7.30;2.17;;;11.20;99.90;;;;;;5021930;28;20433;-77
2022/11/24 10:40:47;;;;;;;;;;;11.20;99.90;;;;;;5028063;28;20036;-73
2022/11/24 10:43:13;;;;;;;11.27;2.35;;;11.30;99.90;;;;;;5030958;28;20391;-73
2022/11/24 10:45:39;;;;;;;19.58;3.28;;;11.30;99.90;;;;;;5024198;28;20029;-76
2022/11/24 10:48:15;;;;;;;13.30;2.63;;;11.30;99.90;;;;;;5003392;28;20030;-73
2022/11/24 10:50:41;;;;;;;17.65;3.15;;;11.30;99.90;;;;;;5026225;28;20022;-75
2022/11/24 10:53:07;;;;;;;12.93;2.83;;;11.30;99.90;;;;;;5022420;28;20105;-76
2022/11/24 10:55:55;;;;;;;17.33;2.63;;;11.30;99.90;;;;;;5024599;28;20490;-76
2022/11/24 10:58:28;;;;;;;19.27;3.28;;;11.30;99.90;;;;;;5024370;28;20030;-75
2022/11/24 11:00:56;;;;;;;11.45;2.67;;;11.40;99.90;;;;;;5026973;28;20072;-76
2022/11/24 11:03:24;;;;;;;14.40;2.80;;;11.40;99.90;;;;;;5025986;28;20092;-77
2022/11/24 11:06:10;;;;;;;14.13;3.00;;;11.40;99.90;;;;;;5030796;28;20022;-75
2022/11/24 11:08:36;;;;;;;17.77;2.45;;;11.50;99.90;;;;;;5029906;28;20029;-76
2022/11/24 11:11:13;;;;;;;16.85;3.10;;;11.50;99.90;;;;;;5033211;28;20025;-76
2022/11/24 11:13:51;;;;;;;16.02;2.78;;;11.50;99.90;;;;;;5026394;28;20026;-76
2022/11/24 11:16:25;;;;;;;13.23;3.20;;;11.50;99.90;;;;;;5022596;28;20034;-76
2022/11/24 11:18:52;;;;;;;14.38;2.95;;;11.50;99.90;;;;;;5023533;28;20037;-75
2022/11/24 11:21:33;;;;;;;14.27;3.40;;;11.50;99.90;;;;;;5023485;28;20030;-76
2022/11/24 11:24:01;;;;;;;12.27;2.97;;;11.60;99.90;;;;;;5023950;28;20045;-74
2022/11/24 11:26:33;;;;;;;13.07;2.95;;;11.60;99.90;;;;;;5028067;28;20025;-76
2022/11/24 11:29:07;;;;;;;15.52;2.90;;;11.60;99.90;;;;;;5026301;28;20057;-75
2022/11/24 11:31:37;;;;;;;13.90;2.50;;;11.50;99.90;;;;;;5010174;28;20022;-76
2022/11/24 11:34:05;;;;;;;15.20;3.42;;;11.60;99.90;;;;;;5022688;28;20040;-75
2022/11/24 11:36:32;;;;;;;16.42;2.90;;;11.60;99.90;;;;;;5023970;28;20041;-76
2022/11/24 11:38:58;;;;;;;10.68;3.33;;;11.70;99.90;;;;;;5021943;28;20061;-75
2022/11/24 11:41:39;;;;;;;12.77;3.30;;;11.70;99.90;;;;;;5022676;28;20053;-74
2022/11/24 11:44:20;;;;;;;16.65;2.60;;;11.70;99.90;;;;;;5026703;28;20038;-74
2022/11/24 11:46:46;;;;;;;10.13;2.65;;;11.70;99.90;;;;;;5020177;28;20022;-74
2022/11/24 11:49:12;;;;;;;15.00;3.08;;;11.70;99.90;;;;;;5020714;28;20041;-74
2022/11/24 11:51:52;;;;;;;19.55;3.13;;;11.80;99.90;;;;;;5022237;28;20374;-73
2022/11/24 11:54:27;;;;;;;13.55;3.03;;;11.80;99.90;;;;;;5019523;28;20116;-76
2022/11/24 11:57:20;;;;;;;14.98;3.13;;;11.80;99.90;;;;;;5023464;28;20022;-73
2022/11/24 11:59:46;;;;;;;;;;;11.90;99.90;;;;;;5022129;28;20033;-74
2022/11/24 12:02:28;;;;;;;15.80;3.10;;;11.80;99.90;;;;;;5023861;28;20305;-73
2022/11/24 12:05:21;;;;;;;19.15;3.30;;;11.80;99.90;;;;;;5022236;28;20037;-76
2022/11/24 12:08:11;;;;;;;14.93;3.22;;;11.80;99.90;;;;;;5026504;28;20473;-68
2022/11/24 12:11:26;;;;;;;17.58;3.42;;;11.90;99.90;;;;;;5023531;28;20079;-68
2022/11/24 12:14:36;;;;;;;15.00;3.05;;;11.90;99.90;;;;;;5000248;28;20045;-75
2022/11/24 12:17:26;;;;;;;15.13;3.65;;;11.90;99.90;;;;;;5021966;28;20026;-69
2022/11/24 12:20:07;;;;;;;21.08;4.00;;;12.00;99.90;;;;;;5024319;28;20025;-70
2022/11/24 12:22:45;;;;;;;17.67;3.38;;;12.10;99.90;;;;;;5023925;28;20117;-68
2022/11/24 12:25:40;;;;;;;19.00;4.43;;;12.00;99.90;;;;;;5024910;28;20076;-68
2022/11/24 12:28:39;;;;;;;13.85;2.85;;;12.10;99.90;;;;;;5016345;28;20423;-67
2022/11/24 12:31:07;;;;;;;18.92;3.25;;;12.10;99.90;;;;;;5024715;28;20091;-73
2022/11/24 12:33:55;;;;;;;18.50;3.70;;;12.10;99.90;;;;;;5031924;28;20049;-68
2022/11/24 12:36:48;;;;;;;16.88;2.67;;;12.10;99.90;;;;;;5023148;28;20037;-70
2022/11/24 12:39:23;;;;;;;11.05;3.10;;;12.10;99.90;;;;;;5028819;28;20021;-72
2022/11/24 12:42:04;;;;;;;24.60;4.13;;;12.10;99.90;;;;;;5020527;28;20481;-67
2022/11/24 12:44:47;;;;;;;16.70;3.55;;;12.20;99.90;;;;;;5021451;28;20076;-68
2022/11/24 12:47:18;;;;;;;15.48;2.67;;;12.20;99.90;;;;;;5026680;28;20095;-67
2022/11/24 12:49:50;;;;;;;11.77;2.70;;;12.20;99.90;;;;;;5018324;28;20045;-69
2022/11/24 12:52:24;;;;;;;19.92;3.40;;;12.20;99.90;;;;;;5020040;28;20038;-68
2022/11/24 12:54:50;;;;;;;21.98;3.58;;;12.20;99.90;;;;;;5026882;28;20030;-67
2022/11/24 12:57:30;;;;;;;21.33;2.72;;;12.20;99.90;;;;;;5017093;28;20095;-70
2022/11/24 13:00:21;;;;;;;22.13;3.42;;;12.20;99.90;;;;;;5024140;28;20065;-69
2022/11/24 13:03:11;;;;;;;21.00;3.45;;;12.20;99.90;;;;;;5019542;28;20489;-68
2022/11/24 13:05:51;;;;;;;12.77;2.67;;;12.10;99.90;;;;;;5028214;28;20029;-69
2022/11/24 13:08:18;;;;;;;18.30;3.10;;;12.30;99.90;;;;;;5022958;28;20109;-74
2022/11/24 13:10:44;;;;;;;11.23;2.30;;;12.20;99.90;;;;;;5028014;28;20026;-69
2022/11/24 13:13:14;;;;;;;16.65;3.17;;;12.30;99.90;;;;;;5011791;28;20401;-72
2022/11/24 13:15:55;;;;;;;15.57;2.58;;;12.20;99.90;;;;;;5023953;28;20033;-69
2022/11/24 13:18:46;;;;;;;13.25;2.70;;;12.30;99.90;;;;;;5027280;28;20469;-71